sensor_id;sensor_type;location;lat;lon;timestamp;P1;durP1;ratioP1;P2;durP2;ratioP2
4959;SDS011;2495;48.200;11.532;2022-08-19T00:03:22;2.40;;;2.20;;
4959;SDS011;2495;48.200;11.532;2022-08-19T00:13:56;1.50;;;1.10;;
4959;SDS011;2495;48.200;11.532;2022-08-19T00:18:58;3.13;;;2.93;;
4959;SDS011;2495;48.200;11.532;2022-08-19T00:23:59;2.50;;;2.30;;
4959;SDS011;2495;48.200;11.532;2022-08-19T00:29:01;2.53;;;2.33;;
4959;SDS011;2495;48.200;11.532;2022-08-19T00:34:02;2.40;;;2.20;;
4959;SDS011;2495;48.200;11.532;2022-08-19T00:39:03;2.40;;;2.20;;
4959;SDS011;2495;48.200;11.532;2022-08-19T00:49:15;2.23;;;2.10;;
4959;SDS011;2495;48.200;11.532;2022-08-19T00:54:31;2.33;;;2.17;;
4959;SDS011;2495;48.200;11.532;2022-08-19T00:59:32;2.50;;;2.30;;
4959;SDS011;2495;48.200;11.532;2022-08-19T01:04:33;2.40;;;2.20;;
4959;SDS011;2495;48.200;11.532;2022-08-19T01:09:34;2.00;;;1.90;;
4959;SDS011;2495;48.200;11.532;2022-08-19T01:14:44;2.53;;;2.37;;
4959;SDS011;2495;48.200;11.532;2022-08-19T01:19:46;2.23;;;2.10;;
4959;SDS011;2495;48.200;11.532;2022-08-19T01:30:20;2.10;;;2.00;;
4959;SDS011;2495;48.200;11.532;2022-08-19T01:35:18;2.67;;;2.47;;
4959;SDS011;2495;48.200;11.532;2022-08-19T01:40:23;2.67;;;2.47;;
4959;SDS011;2495;48.200;11.532;2022-08-19T01:45:29;1.40;;;1.10;;
4959;SDS011;2495;48.200;11.532;2022-08-19T01:50:28;2.10;;;2.00;;
4959;SDS011;2495;48.200;11.532;2022-08-19T01:55:29;2.37;;;1.60;;
4959;SDS011;2495;48.200;11.532;2022-08-19T02:00:30;2.37;;;2.20;;
4959;SDS011;2495;48.200;11.532;2022-08-19T02:05:31;2.70;;;2.50;;
4959;SDS011;2495;48.200;11.532;2022-08-19T02:10:33;2.80;;;2.60;;
4959;SDS011;2495;48.200;11.532;2022-08-19T02:15:34;2.40;;;2.20;;
4959;SDS011;2495;48.200;11.532;2022-08-19T02:20:35;2.50;;;2.30;;
4959;SDS011;2495;48.200;11.532;2022-08-19T02:25:40;2.10;;;2.00;;
4959;SDS011;2495;48.200;11.532;2022-08-19T02:30:45;2.43;;;2.23;;
4959;SDS011;2495;48.200;11.532;2022-08-19T02:35:46;3.13;;;2.93;;
4959;SDS011;2495;48.200;11.532;2022-08-19T02:40:50;2.27;;;2.13;;
4959;SDS011;2495;48.200;11.532;2022-08-19T02:45:51;2.10;;;2.00;;
4959;SDS011;2495;48.200;11.532;2022-08-19T02:50:55;2.10;;;2.00;;
4959;SDS011;2495;48.200;11.532;2022-08-19T02:55:58;2.00;;;1.90;;
4959;SDS011;2495;48.200;11.532;2022-08-19T03:00:59;2.50;;;2.30;;
4959;SDS011;2495;48.200;11.532;2022-08-19T03:06:06;2.50;;;2.30;;
4959;SDS011;2495;48.200;11.532;2022-08-19T03:11:18;2.37;;;2.20;;
4959;SDS011;2495;48.200;11.532;2022-08-19T03:16:25;2.50;;;2.30;;
4959;SDS011;2495;48.200;11.532;2022-08-19T03:21:26;2.20;;;2.10;;
4959;SDS011;2495;48.200;11.532;2022-08-19T03:26:27;1.40;;;1.00;;
4959;SDS011;2495;48.200;11.532;2022-08-19T03:31:29;2.40;;;2.20;;
4959;SDS011;2495;48.200;11.532;2022-08-19T03:36:30;2.20;;;2.10;;
4959;SDS011;2495;48.200;11.532;2022-08-19T03:41:32;2.27;;;2.17;;
4959;SDS011;2495;48.200;11.532;2022-08-19T03:46:41;1.83;;;1.73;;
4959;SDS011;2495;48.200;11.532;2022-08-19T03:51:46;2.50;;;2.30;;
4959;SDS011;2495;48.200;11.532;2022-08-19T03:56:47;2.80;;;2.60;;
4959;SDS011;2495;48.200;11.532;2022-08-19T04:01:49;2.43;;;2.23;;
4959;SDS011;2495;48.200;11.532;2022-08-19T04:06:50;2.50;;;2.30;;
4959;SDS011;2495;48.200;11.532;2022-08-19T04:11:57;1.50;;;1.30;;
4959;SDS011;2495;48.200;11.532;2022-08-19T04:17:01;2.83;;;2.63;;
4959;SDS011;2495;48.200;11.532;2022-08-19T04:22:05;3.20;;;3.00;;
4959;SDS011;2495;48.200;11.532;2022-08-19T04:27:06;3.30;;;3.10;;
4959;SDS011;2495;48.200;11.532;2022-08-19T04:32:10;2.20;;;2.00;;
4959;SDS011;2495;48.200;11.532;2022-08-19T04:37:14;3.10;;;2.90;;
4959;SDS011;2495;48.200;11.532;2022-08-19T04:42:18;3.10;;;2.90;;
4959;SDS011;2495;48.200;11.532;2022-08-19T04:47:54;3.00;;;2.80;;
4959;SDS011;2495;48.200;11.532;2022-08-19T04:52:57;3.00;;;2.80;;
4959;SDS011;2495;48.200;11.532;2022-08-19T04:58:03;3.60;;;3.40;;
4959;SDS011;2495;48.200;11.532;2022-08-19T05:03:08;3.33;;;3.13;;
4959;SDS011;2495;48.200;11.532;2022-08-19T05:08:12;3.57;;;3.37;;
4959;SDS011;2495;48.200;11.532;2022-08-19T05:13:17;3.37;;;3.17;;
4959;SDS011;2495;48.200;11.532;2022-08-19T05:18:22;3.30;;;3.10;;
4959;SDS011;2495;48.200;11.532;2022-08-19T05:23:49;3.50;;;3.30;;
4959;SDS011;2495;48.200;11.532;2022-08-19T05:29:13;3.00;;;2.80;;
4959;SDS011;2495;48.200;11.532;2022-08-19T05:34:43;3.20;;;3.00;;
4959;SDS011;2495;48.200;11.532;2022-08-19T05:39:54;3.00;;;2.80;;
4959;SDS011;2495;48.200;11.532;2022-08-19T05:44:58;3.10;;;2.90;;
4959;SDS011;2495;48.200;11.532;2022-08-19T05:50:07;3.20;;;3.00;;
4959;SDS011;2495;48.200;11.532;2022-08-19T05:55:09;3.20;;;3.00;;
4959;SDS011;2495;48.200;11.532;2022-08-19T06:16:10;1.60;;;1.50;;
4959;SDS011;2495;48.200;11.532;2022-08-19T06:21:15;2.90;;;2.70;;
4959;SDS011;2495;48.200;11.532;2022-08-19T06:26:18;2.90;;;2.70;;
4959;SDS011;2495;48.200;11.532;2022-08-19T06:42:12;1.50;;;1.30;;
4959;SDS011;2495;48.200;11.532;2022-08-19T06:47:16;2.87;;;2.67;;
4959;SDS011;2495;48.200;11.532;2022-08-19T06:52:19;3.10;;;2.90;;
4959;SDS011;2495;48.200;11.532;2022-08-19T06:57:35;3.13;;;2.93;;
4959;SDS011;2495;48.200;11.532;2022-08-19T07:02:40;2.30;;;2.17;;
4959;SDS011;2495;48.200;11.532;2022-08-19T07:07:38;1.50;;;1.40;;
4959;SDS011;2495;48.200;11.532;2022-08-19T07:18:26;2.30;;;2.20;;
4959;SDS011;2495;48.200;11.532;2022-08-19T07:23:28;3.33;;;3.13;;
4959;SDS011;2495;48.200;11.532;2022-08-19T07:28:32;2.80;;;2.60;;
4959;SDS011;2495;48.200;11.532;2022-08-19T07:33:34;2.50;;;2.30;;
4959;SDS011;2495;48.200;11.532;2022-08-19T07:38:35;2.63;;;2.43;;
4959;SDS011;2495;48.200;11.532;2022-08-19T07:43:37;2.50;;;2.30;;
4959;SDS011;2495;48.200;11.532;2022-08-19T07:48:39;2.40;;;2.20;;
4959;SDS011;2495;48.200;11.532;2022-08-19T07:53:40;2.60;;;2.40;;
4959;SDS011;2495;48.200;11.532;2022-08-19T07:58:42;2.60;;;2.40;;
4959;SDS011;2495;48.200;11.532;2022-08-19T08:03:43;2.60;;;2.40;;
4959;SDS011;2495;48.200;11.532;2022-08-19T08:09:03;2.60;;;2.40;;
4959;SDS011;2495;48.200;11.532;2022-08-19T08:14:12;2.57;;;2.37;;
4959;SDS011;2495;48.200;11.532;2022-08-19T08:19:14;3.47;;;3.17;;
4959;SDS011;2495;48.200;11.532;2022-08-19T08:24:16;2.80;;;2.60;;
4959;SDS011;2495;48.200;11.532;2022-08-19T08:29:17;2.60;;;2.40;;
4959;SDS011;2495;48.200;11.532;2022-08-19T08:34:18;4.12;;;1.80;;
4959;SDS011;2495;48.200;11.532;2022-08-19T08:39:20;2.40;;;2.20;;
4959;SDS011;2495;48.200;11.532;2022-08-19T08:44:22;2.83;;;2.63;;
4959;SDS011;2495;48.200;11.532;2022-08-19T08:54:43;2.20;;;2.10;;
4959;SDS011;2495;48.200;11.532;2022-08-19T08:59:43;2.50;;;2.30;;
4959;SDS011;2495;48.200;11.532;2022-08-19T09:04:44;2.50;;;2.30;;
4959;SDS011;2495;48.200;11.532;2022-08-19T09:09:47;2.20;;;2.10;;
4959;SDS011;2495;48.200;11.532;2022-08-19T09:20:11;2.17;;;2.07;;
4959;SDS011;2495;48.200;11.532;2022-08-19T09:25:04;1.63;;;1.53;;
4959;SDS011;2495;48.200;11.532;2022-08-19T09:30:06;1.40;;;1.20;;
4959;SDS011;2495;48.200;11.532;2022-08-19T09:35:08;2.70;;;2.50;;
4959;SDS011;2495;48.200;11.532;2022-08-19T09:40:09;2.50;;;2.30;;
4959;SDS011;2495;48.200;11.532;2022-08-19T09:45:11;2.20;;;2.10;;
4959;SDS011;2495;48.200;11.532;2022-08-19T09:50:13;2.57;;;2.37;;
4959;SDS011;2495;48.200;11.532;2022-08-19T09:55:14;2.50;;;2.30;;
4959;SDS011;2495;48.200;11.532;2022-08-19T10:00:15;3.03;;;2.83;;
4959;SDS011;2495;48.200;11.532;2022-08-19T10:05:17;3.33;;;3.13;;
4959;SDS011;2495;48.200;11.532;2022-08-19T10:16:46;2.30;;;2.20;;
4959;SDS011;2495;48.200;11.532;2022-08-19T10:21:47;2.20;;;2.10;;
4959;SDS011;2495;48.200;11.532;2022-08-19T10:26:49;2.67;;;2.47;;
4959;SDS011;2495;48.200;11.532;2022-08-19T10:31:50;1.80;;;1.70;;
4959;SDS011;2495;48.200;11.532;2022-08-19T10:36:51;2.63;;;2.43;;
4959;SDS011;2495;48.200;11.532;2022-08-19T10:41:53;2.50;;;2.30;;
4959;SDS011;2495;48.200;11.532;2022-08-19T10:46:54;2.30;;;2.10;;
4959;SDS011;2495;48.200;11.532;2022-08-19T10:51:56;2.57;;;2.37;;
4959;SDS011;2495;48.200;11.532;2022-08-19T10:57:18;1.60;;;1.50;;
4959;SDS011;2495;48.200;11.532;2022-08-19T11:02:20;4.70;;;4.30;;
4959;SDS011;2495;48.200;11.532;2022-08-19T11:07:21;1.90;;;1.80;;
4959;SDS011;2495;48.200;11.532;2022-08-19T11:12:22;1.60;;;1.50;;
4959;SDS011;2495;48.200;11.532;2022-08-19T11:17:24;1.93;;;1.83;;
4959;SDS011;2495;48.200;11.532;2022-08-19T11:22:25;1.80;;;1.70;;
4959;SDS011;2495;48.200;11.532;2022-08-19T11:27:27;2.77;;;2.03;;
4959;SDS011;2495;48.200;11.532;2022-08-19T11:32:28;1.60;;;1.50;;
4959;SDS011;2495;48.200;11.532;2022-08-19T11:37:30;2.13;;;1.93;;
4959;SDS011;2495;48.200;11.532;2022-08-19T11:42:31;2.67;;;2.17;;
4959;SDS011;2495;48.200;11.532;2022-08-19T11:47:51;1.50;;;1.30;;
4959;SDS011;2495;48.200;11.532;2022-08-19T11:52:53;1.60;;;1.50;;
4959;SDS011;2495;48.200;11.532;2022-08-19T11:57:54;1.40;;;0.90;;
4959;SDS011;2495;48.200;11.532;2022-08-19T12:02:55;1.30;;;0.70;;
4959;SDS011;2495;48.200;11.532;2022-08-19T12:07:57;1.40;;;1.10;;
4959;SDS011;2495;48.200;11.532;2022-08-19T12:12:59;1.40;;;1.30;;
4959;SDS011;2495;48.200;11.532;2022-08-19T12:18:11;1.30;;;0.90;;
4959;SDS011;2495;48.200;11.532;2022-08-19T12:23:13;1.30;;;0.80;;
4959;SDS011;2495;48.200;11.532;2022-08-19T12:28:24;1.30;;;0.80;;
4959;SDS011;2495;48.200;11.532;2022-08-19T12:33:28;1.20;;;0.67;;
4959;SDS011;2495;48.200;11.532;2022-08-19T12:38:51;1.20;;;0.60;;
4959;SDS011;2495;48.200;11.532;2022-08-19T12:43:58;1.20;;;0.60;;
4959;SDS011;2495;48.200;11.532;2022-08-19T12:49:08;1.20;;;0.60;;
4959;SDS011;2495;48.200;11.532;2022-08-19T12:54:10;1.20;;;0.60;;
4959;SDS011;2495;48.200;11.532;2022-08-19T13:45:15;1.17;;;0.60;;
4959;SDS011;2495;48.200;11.532;2022-08-19T13:57:46;1.20;;;0.60;;
4959;SDS011;2495;48.200;11.532;2022-08-19T14:03:42;1.17;;;0.50;;
4959;SDS011;2495;48.200;11.532;2022-08-19T14:08:46;1.20;;;0.50;;
4959;SDS011;2495;48.200;11.532;2022-08-19T14:13:48;1.10;;;0.60;;
4959;SDS011;2495;48.200;11.532;2022-08-19T14:18:49;1.20;;;0.60;;
4959;SDS011;2495;48.200;11.532;2022-08-19T14:23:58;1.20;;;0.60;;
4959;SDS011;2495;48.200;11.532;2022-08-19T14:28:59;1.20;;;0.60;;
4959;SDS011;2495;48.200;11.532;2022-08-19T14:34:01;1.20;;;0.60;;
4959;SDS011;2495;48.200;11.532;2022-08-19T14:39:03;1.20;;;0.60;;
4959;SDS011;2495;48.200;11.532;2022-08-19T14:44:07;1.20;;;0.50;;
4959;SDS011;2495;48.200;11.532;2022-08-19T14:49:10;1.20;;;0.50;;
4959;SDS011;2495;48.200;11.532;2022-08-19T14:54:17;1.20;;;0.70;;
4959;SDS011;2495;48.200;11.532;2022-08-19T14:59:19;1.17;;;0.50;;
4959;SDS011;2495;48.200;11.532;2022-08-19T15:04:20;1.17;;;0.50;;
4959;SDS011;2495;48.200;11.532;2022-08-19T15:09:21;1.20;;;0.60;;
4959;SDS011;2495;48.200;11.532;2022-08-19T15:14:23;1.20;;;0.50;;
4959;SDS011;2495;48.200;11.532;2022-08-19T15:19:24;1.20;;;0.60;;
4959;SDS011;2495;48.200;11.532;2022-08-19T15:24:26;1.20;;;0.70;;
4959;SDS011;2495;48.200;11.532;2022-08-19T15:29:29;1.30;;;0.70;;
4959;SDS011;2495;48.200;11.532;2022-08-19T15:34:28;1.13;;;0.60;;
4959;SDS011;2495;48.200;11.532;2022-08-19T15:39:31;1.10;;;0.60;;
4959;SDS011;2495;48.200;11.532;2022-08-19T15:44:32;1.20;;;0.60;;
4959;SDS011;2495;48.200;11.532;2022-08-19T15:49:34;2.37;;;1.20;;
4959;SDS011;2495;48.200;11.532;2022-08-19T15:54:35;1.20;;;0.60;;
4959;SDS011;2495;48.200;11.532;2022-08-19T15:59:40;1.10;;;0.50;;
4959;SDS011;2495;48.200;11.532;2022-08-19T16:04:59;1.20;;;0.60;;
4959;SDS011;2495;48.200;11.532;2022-08-19T16:10:19;1.13;;;0.60;;
4959;SDS011;2495;48.200;11.532;2022-08-19T16:15:20;1.20;;;0.50;;
4959;SDS011;2495;48.200;11.532;2022-08-19T16:20:22;1.63;;;1.40;;
4959;SDS011;2495;48.200;11.532;2022-08-19T16:25:23;1.20;;;0.60;;
4959;SDS011;2495;48.200;11.532;2022-08-19T16:30:24;1.20;;;0.60;;
4959;SDS011;2495;48.200;11.532;2022-08-19T16:35:26;1.10;;;0.60;;
4959;SDS011;2495;48.200;11.532;2022-08-19T16:40:27;1.17;;;0.60;;
4959;SDS011;2495;48.200;11.532;2022-08-19T16:45:28;1.20;;;0.70;;
4959;SDS011;2495;48.200;11.532;2022-08-19T16:50:30;1.10;;;0.50;;
4959;SDS011;2495;48.200;11.532;2022-08-19T16:55:31;1.13;;;0.60;;
4959;SDS011;2495;48.200;11.532;2022-08-19T17:00:32;1.20;;;0.50;;
4959;SDS011;2495;48.200;11.532;2022-08-19T17:05:34;1.20;;;0.77;;
4959;SDS011;2495;48.200;11.532;2022-08-19T17:10:35;1.20;;;0.60;;
4959;SDS011;2495;48.200;11.532;2022-08-19T17:15:36;1.20;;;0.70;;
4959;SDS011;2495;48.200;11.532;2022-08-19T17:20:38;1.40;;;0.90;;
4959;SDS011;2495;48.200;11.532;2022-08-19T17:25:39;1.10;;;0.60;;
4959;SDS011;2495;48.200;11.532;2022-08-19T17:30:40;1.20;;;0.60;;
4959;SDS011;2495;48.200;11.532;2022-08-19T17:35:42;1.10;;;0.60;;
4959;SDS011;2495;48.200;11.532;2022-08-19T17:40:43;1.10;;;0.60;;
4959;SDS011;2495;48.200;11.532;2022-08-19T17:45:44;1.20;;;0.60;;
4959;SDS011;2495;48.200;11.532;2022-08-19T17:50:45;2.17;;;1.60;;
4959;SDS011;2495;48.200;11.532;2022-08-19T17:55:46;1.10;;;0.60;;
4959;SDS011;2495;48.200;11.532;2022-08-19T18:00:48;1.10;;;0.57;;
4959;SDS011;2495;48.200;11.532;2022-08-19T18:05:49;1.10;;;0.60;;
4959;SDS011;2495;48.200;11.532;2022-08-19T18:10:50;1.10;;;0.50;;
4959;SDS011;2495;48.200;11.532;2022-08-19T18:15:55;1.20;;;0.60;;
4959;SDS011;2495;48.200;11.532;2022-08-19T18:20:56;1.10;;;0.60;;
4959;SDS011;2495;48.200;11.532;2022-08-19T18:25:57;1.10;;;0.60;;
4959;SDS011;2495;48.200;11.532;2022-08-19T18:30:59;1.10;;;0.60;;
4959;SDS011;2495;48.200;11.532;2022-08-19T18:36:00;1.10;;;0.60;;
4959;SDS011;2495;48.200;11.532;2022-08-19T18:41:02;1.10;;;0.60;;
4959;SDS011;2495;48.200;11.532;2022-08-19T18:46:21;1.10;;;0.60;;
4959;SDS011;2495;48.200;11.532;2022-08-19T18:51:28;1.20;;;0.77;;
4959;SDS011;2495;48.200;11.532;2022-08-19T18:56:29;1.10;;;0.60;;
4959;SDS011;2495;48.200;11.532;2022-08-19T19:01:41;1.13;;;0.70;;
4959;SDS011;2495;48.200;11.532;2022-08-19T19:06:41;1.10;;;0.60;;
4959;SDS011;2495;48.200;11.532;2022-08-19T19:11:44;1.10;;;0.60;;
4959;SDS011;2495;48.200;11.532;2022-08-19T19:16:44;1.10;;;0.60;;
4959;SDS011;2495;48.200;11.532;2022-08-19T19:21:46;1.10;;;0.50;;
4959;SDS011;2495;48.200;11.532;2022-08-19T19:26:47;1.10;;;0.60;;
4959;SDS011;2495;48.200;11.532;2022-08-19T19:31:48;1.10;;;0.60;;
4959;SDS011;2495;48.200;11.532;2022-08-19T19:36:50;1.37;;;1.00;;
4959;SDS011;2495;48.200;11.532;2022-08-19T19:41:50;1.10;;;0.60;;
4959;SDS011;2495;48.200;11.532;2022-08-19T19:46:52;1.20;;;0.70;;
4959;SDS011;2495;48.200;11.532;2022-08-19T19:51:53;1.10;;;0.60;;
4959;SDS011;2495;48.200;11.532;2022-08-19T19:56:54;1.27;;;0.80;;
4959;SDS011;2495;48.200;11.532;2022-08-19T20:01:56;1.30;;;0.93;;
4959;SDS011;2495;48.200;11.532;2022-08-19T20:06:57;2.70;;;1.00;;
4959;SDS011;2495;48.200;11.532;2022-08-19T20:11:59;1.10;;;0.60;;
4959;SDS011;2495;48.200;11.532;2022-08-19T20:17:00;1.10;;;0.50;;
4959;SDS011;2495;48.200;11.532;2022-08-19T20:22:02;1.10;;;0.60;;
4959;SDS011;2495;48.200;11.532;2022-08-19T20:27:03;2.50;;;2.07;;
4959;SDS011;2495;48.200;11.532;2022-08-19T20:32:05;1.10;;;0.60;;
4959;SDS011;2495;48.200;11.532;2022-08-19T20:37:06;1.10;;;0.60;;
4959;SDS011;2495;48.200;11.532;2022-08-19T20:42:08;1.10;;;0.60;;
4959;SDS011;2495;48.200;11.532;2022-08-19T20:47:09;1.10;;;0.60;;
4959;SDS011;2495;48.200;11.532;2022-08-19T20:52:10;1.10;;;0.60;;
4959;SDS011;2495;48.200;11.532;2022-08-19T20:57:12;1.10;;;0.60;;
4959;SDS011;2495;48.200;11.532;2022-08-19T21:02:13;1.10;;;0.60;;
4959;SDS011;2495;48.200;11.532;2022-08-19T21:07:15;1.10;;;0.50;;
4959;SDS011;2495;48.200;11.532;2022-08-19T21:12:16;1.80;;;1.67;;
4959;SDS011;2495;48.200;11.532;2022-08-19T21:17:17;1.10;;;0.60;;
4959;SDS011;2495;48.200;11.532;2022-08-19T21:22:19;1.10;;;0.60;;
4959;SDS011;2495;48.200;11.532;2022-08-19T21:27:20;1.10;;;0.60;;
4959;SDS011;2495;48.200;11.532;2022-08-19T21:32:22;1.10;;;0.60;;
4959;SDS011;2495;48.200;11.532;2022-08-19T21:37:23;1.10;;;0.50;;
4959;SDS011;2495;48.200;11.532;2022-08-19T21:42:43;1.10;;;0.57;;
4959;SDS011;2495;48.200;11.532;2022-08-19T21:47:44;1.10;;;0.60;;
4959;SDS011;2495;48.200;11.532;2022-08-19T21:52:46;1.70;;;1.37;;
4959;SDS011;2495;48.200;11.532;2022-08-19T21:57:47;1.10;;;0.50;;
4959;SDS011;2495;48.200;11.532;2022-08-19T22:02:49;1.10;;;0.50;;
4959;SDS011;2495;48.200;11.532;2022-08-19T22:07:51;1.10;;;0.60;;
4959;SDS011;2495;48.200;11.532;2022-08-19T22:12:52;1.10;;;0.50;;
4959;SDS011;2495;48.200;11.532;2022-08-19T22:17:53;1.10;;;0.50;;
4959;SDS011;2495;48.200;11.532;2022-08-19T22:22:57;1.10;;;0.57;;
4959;SDS011;2495;48.200;11.532;2022-08-19T22:27:56;1.10;;;0.60;;
4959;SDS011;2495;48.200;11.532;2022-08-19T22:32:58;1.10;;;0.60;;
4959;SDS011;2495;48.200;11.532;2022-08-19T22:38:21;1.10;;;0.53;;
4959;SDS011;2495;48.200;11.532;2022-08-19T22:43:21;1.10;;;0.60;;
4959;SDS011;2495;48.200;11.532;2022-08-19T22:48:30;2.73;;;1.87;;
4959;SDS011;2495;48.200;11.532;2022-08-19T22:53:32;3.47;;;2.33;;
4959;SDS011;2495;48.200;11.532;2022-08-19T22:58:33;1.10;;;0.60;;
4959;SDS011;2495;48.200;11.532;2022-08-19T23:03:34;1.20;;;0.80;;
4959;SDS011;2495;48.200;11.532;2022-08-19T23:08:35;1.10;;;0.60;;
4959;SDS011;2495;48.200;11.532;2022-08-19T23:13:37;1.10;;;0.60;;
4959;SDS011;2495;48.200;11.532;2022-08-19T23:18:38;1.10;;;0.50;;
4959;SDS011;2495;48.200;11.532;2022-08-19T23:23:39;1.10;;;0.60;;
4959;SDS011;2495;48.200;11.532;2022-08-19T23:28:43;1.10;;;0.60;;
4959;SDS011;2495;48.200;11.532;2022-08-19T23:34:03;1.10;;;0.60;;
4959;SDS011;2495;48.200;11.532;2022-08-19T23:39:05;1.10;;;0.60;;
4959;SDS011;2495;48.200;11.532;2022-08-19T23:44:06;1.10;;;0.50;;
4959;SDS011;2495;48.200;11.532;2022-08-19T23:49:07;9.93;;;1.43;;
4959;SDS011;2495;48.200;11.532;2022-08-19T23:54:11;1.10;;;0.50;;
4959;SDS011;2495;48.200;11.532;2022-08-19T23:59:13;1.40;;;1.03;;
